sensor_id;sensor_type;location;lat;lon;timestamp;P1;durP1;ratioP1;P2;durP2;ratioP2
63087;SDS011;49173;43.164;27.786;2023-08-20T00:01:29;9.38;;;6.90;;
63087;SDS011;49173;43.164;27.786;2023-08-20T00:03:55;9.05;;;6.95;;
63087;SDS011;49173;43.164;27.786;2023-08-20T00:06:22;10.13;;;6.50;;
63087;SDS011;49173;43.164;27.786;2023-08-20T00:08:48;9.90;;;6.80;;
63087;SDS011;49173;43.164;27.786;2023-08-20T00:11:15;8.48;;;6.80;;
63087;SDS011;49173;43.164;27.786;2023-08-20T00:13:41;8.68;;;6.82;;
63087;SDS011;49173;43.164;27.786;2023-08-20T00:16:08;8.38;;;6.60;;
63087;SDS011;49173;43.164;27.786;2023-08-20T00:18:34;8.05;;;6.63;;
63087;SDS011;49173;43.164;27.786;2023-08-20T00:21:00;7.00;;;6.25;;
63087;SDS011;49173;43.164;27.786;2023-08-20T00:23:26;8.38;;;6.43;;
63087;SDS011;49173;43.164;27.786;2023-08-20T00:25:52;10.73;;;6.80;;
63087;SDS011;49173;43.164;27.786;2023-08-20T00:28:19;10.48;;;6.47;;
63087;SDS011;49173;43.164;27.786;2023-08-20T00:30:46;10.68;;;7.10;;
63087;SDS011;49173;43.164;27.786;2023-08-20T00:33:11;12.07;;;6.72;;
63087;SDS011;49173;43.164;27.786;2023-08-20T00:35:38;12.07;;;6.70;;
63087;SDS011;49173;43.164;27.786;2023-08-20T00:38:04;9.27;;;7.00;;
63087;SDS011;49173;43.164;27.786;2023-08-20T00:40:31;7.78;;;6.80;;
63087;SDS011;49173;43.164;27.786;2023-08-20T00:42:56;8.88;;;6.82;;
63087;SDS011;49173;43.164;27.786;2023-08-20T00:45:23;7.18;;;6.05;;
63087;SDS011;49173;43.164;27.786;2023-08-20T00:47:49;10.52;;;5.95;;
63087;SDS011;49173;43.164;27.786;2023-08-20T00:50:16;11.65;;;6.40;;
63087;SDS011;49173;43.164;27.786;2023-08-20T00:52:42;10.30;;;7.03;;
63087;SDS011;49173;43.164;27.786;2023-08-20T00:55:11;9.35;;;6.10;;
63087;SDS011;49173;43.164;27.786;2023-08-20T00:57:41;9.77;;;6.20;;
63087;SDS011;49173;43.164;27.786;2023-08-20T01:00:07;10.73;;;7.13;;
63087;SDS011;49173;43.164;27.786;2023-08-20T01:02:36;8.33;;;6.83;;
63087;SDS011;49173;43.164;27.786;2023-08-20T01:05:03;11.35;;;6.88;;
63087;SDS011;49173;43.164;27.786;2023-08-20T01:10:08;10.15;;;6.35;;
63087;SDS011;49173;43.164;27.786;2023-08-20T01:12:50;12.15;;;6.68;;
63087;SDS011;49173;43.164;27.786;2023-08-20T01:15:17;8.90;;;6.38;;
63087;SDS011;49173;43.164;27.786;2023-08-20T01:17:43;8.18;;;5.93;;
63087;SDS011;49173;43.164;27.786;2023-08-20T01:20:11;9.00;;;6.88;;
63087;SDS011;49173;43.164;27.786;2023-08-20T01:30:59;8.68;;;6.82;;
63087;SDS011;49173;43.164;27.786;2023-08-20T01:33:26;9.50;;;6.70;;
63087;SDS011;49173;43.164;27.786;2023-08-20T01:35:52;9.05;;;6.43;;
63087;SDS011;49173;43.164;27.786;2023-08-20T01:38:19;12.05;;;6.25;;
63087;SDS011;49173;43.164;27.786;2023-08-20T01:40:45;10.82;;;6.68;;
63087;SDS011;49173;43.164;27.786;2023-08-20T01:43:12;8.07;;;6.45;;
63087;SDS011;49173;43.164;27.786;2023-08-20T01:45:37;11.57;;;5.80;;
63087;SDS011;49173;43.164;27.786;2023-08-20T01:48:03;8.07;;;6.57;;
63087;SDS011;49173;43.164;27.786;2023-08-20T01:50:29;8.90;;;6.50;;
63087;SDS011;49173;43.164;27.786;2023-08-20T01:52:56;9.15;;;6.68;;
63087;SDS011;49173;43.164;27.786;2023-08-20T01:55:27;8.85;;;6.53;;
63087;SDS011;49173;43.164;27.786;2023-08-20T01:57:53;8.40;;;6.78;;
63087;SDS011;49173;43.164;27.786;2023-08-20T02:00:19;16.40;;;6.70;;
63087;SDS011;49173;43.164;27.786;2023-08-20T02:02:45;9.15;;;7.15;;
63087;SDS011;49173;43.164;27.786;2023-08-20T02:05:10;10.90;;;7.03;;
63087;SDS011;49173;43.164;27.786;2023-08-20T02:07:37;13.68;;;8.15;;
63087;SDS011;49173;43.164;27.786;2023-08-20T02:10:02;12.80;;;7.55;;
63087;SDS011;49173;43.164;27.786;2023-08-20T02:12:28;11.57;;;8.20;;
63087;SDS011;49173;43.164;27.786;2023-08-20T02:14:54;11.48;;;8.70;;
63087;SDS011;49173;43.164;27.786;2023-08-20T02:17:20;14.82;;;8.77;;
63087;SDS011;49173;43.164;27.786;2023-08-20T02:19:46;14.90;;;9.25;;
63087;SDS011;49173;43.164;27.786;2023-08-20T02:22:12;10.52;;;8.27;;
63087;SDS011;49173;43.164;27.786;2023-08-20T02:24:38;10.48;;;8.57;;
63087;SDS011;49173;43.164;27.786;2023-08-20T02:27:03;13.38;;;8.98;;
63087;SDS011;49173;43.164;27.786;2023-08-20T02:29:29;15.55;;;8.93;;
63087;SDS011;49173;43.164;27.786;2023-08-20T02:31:55;13.25;;;8.02;;
63087;SDS011;49173;43.164;27.786;2023-08-20T02:34:20;13.20;;;8.85;;
63087;SDS011;49173;43.164;27.786;2023-08-20T02:36:48;11.23;;;8.88;;
63087;SDS011;49173;43.164;27.786;2023-08-20T02:39:13;13.07;;;8.20;;
63087;SDS011;49173;43.164;27.786;2023-08-20T02:41:39;12.23;;;7.50;;
63087;SDS011;49173;43.164;27.786;2023-08-20T02:44:06;13.20;;;7.90;;
63087;SDS011;49173;43.164;27.786;2023-08-20T02:46:32;10.38;;;7.70;;
63087;SDS011;49173;43.164;27.786;2023-08-20T02:48:58;11.95;;;7.20;;
63087;SDS011;49173;43.164;27.786;2023-08-20T02:51:23;9.88;;;7.85;;
63087;SDS011;49173;43.164;27.786;2023-08-20T02:53:49;9.18;;;7.30;;
63087;SDS011;49173;43.164;27.786;2023-08-20T02:56:15;10.75;;;7.57;;
63087;SDS011;49173;43.164;27.786;2023-08-20T02:58:41;9.32;;;7.25;;
63087;SDS011;49173;43.164;27.786;2023-08-20T03:01:06;9.60;;;7.45;;
63087;SDS011;49173;43.164;27.786;2023-08-20T03:03:42;11.57;;;7.78;;
63087;SDS011;49173;43.164;27.786;2023-08-20T03:06:08;9.35;;;7.28;;
63087;SDS011;49173;43.164;27.786;2023-08-20T03:08:33;19.73;;;8.25;;
63087;SDS011;49173;43.164;27.786;2023-08-20T03:10:59;11.48;;;7.47;;
63087;SDS011;49173;43.164;27.786;2023-08-20T03:13:25;11.43;;;8.18;;
63087;SDS011;49173;43.164;27.786;2023-08-20T03:15:50;13.15;;;8.20;;
63087;SDS011;49173;43.164;27.786;2023-08-20T03:18:17;12.13;;;8.02;;
63087;SDS011;49173;43.164;27.786;2023-08-20T03:20:42;11.52;;;7.85;;
63087;SDS011;49173;43.164;27.786;2023-08-20T03:23:08;10.80;;;7.50;;
63087;SDS011;49173;43.164;27.786;2023-08-20T03:25:34;11.02;;;7.80;;
63087;SDS011;49173;43.164;27.786;2023-08-20T03:27:59;13.25;;;8.00;;
63087;SDS011;49173;43.164;27.786;2023-08-20T03:30:25;12.52;;;7.93;;
63087;SDS011;49173;43.164;27.786;2023-08-20T03:32:51;13.95;;;7.35;;
63087;SDS011;49173;43.164;27.786;2023-08-20T03:35:16;14.75;;;8.20;;
63087;SDS011;49173;43.164;27.786;2023-08-20T03:37:42;14.35;;;8.45;;
63087;SDS011;49173;43.164;27.786;2023-08-20T03:40:08;10.50;;;7.68;;
63087;SDS011;49173;43.164;27.786;2023-08-20T03:42:34;16.35;;;8.13;;
63087;SDS011;49173;43.164;27.786;2023-08-20T03:45:00;11.32;;;7.60;;
63087;SDS011;49173;43.164;27.786;2023-08-20T03:47:26;11.93;;;7.50;;
63087;SDS011;49173;43.164;27.786;2023-08-20T03:49:51;10.45;;;7.68;;
63087;SDS011;49173;43.164;27.786;2023-08-20T03:52:17;13.38;;;8.02;;
63087;SDS011;49173;43.164;27.786;2023-08-20T03:54:43;15.15;;;8.50;;
63087;SDS011;49173;43.164;27.786;2023-08-20T03:57:09;12.35;;;8.18;;
63087;SDS011;49173;43.164;27.786;2023-08-20T03:59:34;9.40;;;7.95;;
63087;SDS011;49173;43.164;27.786;2023-08-20T04:02:00;10.40;;;7.72;;
63087;SDS011;49173;43.164;27.786;2023-08-20T04:04:26;11.77;;;7.65;;
63087;SDS011;49173;43.164;27.786;2023-08-20T04:06:52;14.13;;;7.00;;
63087;SDS011;49173;43.164;27.786;2023-08-20T04:09:18;13.45;;;7.45;;
63087;SDS011;49173;43.164;27.786;2023-08-20T04:11:43;11.00;;;6.97;;
63087;SDS011;49173;43.164;27.786;2023-08-20T04:14:09;13.43;;;6.85;;
63087;SDS011;49173;43.164;27.786;2023-08-20T04:16:35;15.05;;;7.25;;
63087;SDS011;49173;43.164;27.786;2023-08-20T04:19:01;11.85;;;6.70;;
63087;SDS011;49173;43.164;27.786;2023-08-20T04:21:26;9.20;;;6.85;;
63087;SDS011;49173;43.164;27.786;2023-08-20T04:23:52;12.82;;;6.53;;
63087;SDS011;49173;43.164;27.786;2023-08-20T04:26:18;9.35;;;6.25;;
63087;SDS011;49173;43.164;27.786;2023-08-20T04:28:44;17.35;;;6.78;;
63087;SDS011;49173;43.164;27.786;2023-08-20T04:31:10;10.35;;;6.50;;
63087;SDS011;49173;43.164;27.786;2023-08-20T04:33:35;10.95;;;6.10;;
63087;SDS011;49173;43.164;27.786;2023-08-20T04:36:01;11.85;;;6.10;;
63087;SDS011;49173;43.164;27.786;2023-08-20T04:38:27;10.77;;;6.53;;
63087;SDS011;49173;43.164;27.786;2023-08-20T04:40:53;11.95;;;6.57;;
63087;SDS011;49173;43.164;27.786;2023-08-20T04:43:18;11.02;;;6.40;;
63087;SDS011;49173;43.164;27.786;2023-08-20T04:45:44;10.45;;;6.07;;
63087;SDS011;49173;43.164;27.786;2023-08-20T04:48:10;12.73;;;6.55;;
63087;SDS011;49173;43.164;27.786;2023-08-20T04:50:36;11.65;;;6.78;;
63087;SDS011;49173;43.164;27.786;2023-08-20T04:53:01;15.18;;;6.85;;
63087;SDS011;49173;43.164;27.786;2023-08-20T04:55:27;10.38;;;7.18;;
63087;SDS011;49173;43.164;27.786;2023-08-20T04:57:53;9.05;;;6.57;;
63087;SDS011;49173;43.164;27.786;2023-08-20T05:00:19;11.40;;;7.20;;
63087;SDS011;49173;43.164;27.786;2023-08-20T05:02:46;11.43;;;6.43;;
63087;SDS011;49173;43.164;27.786;2023-08-20T05:05:12;9.77;;;6.40;;
63087;SDS011;49173;43.164;27.786;2023-08-20T05:07:38;8.52;;;6.38;;
63087;SDS011;49173;43.164;27.786;2023-08-20T05:10:04;17.23;;;7.13;;
63087;SDS011;49173;43.164;27.786;2023-08-20T05:12:30;11.95;;;6.75;;
63087;SDS011;49173;43.164;27.786;2023-08-20T05:14:56;14.05;;;6.63;;
63087;SDS011;49173;43.164;27.786;2023-08-20T05:17:21;12.15;;;6.80;;
63087;SDS011;49173;43.164;27.786;2023-08-20T05:19:47;11.75;;;6.88;;
63087;SDS011;49173;43.164;27.786;2023-08-20T05:22:13;14.98;;;7.10;;
63087;SDS011;49173;43.164;27.786;2023-08-20T05:24:39;10.07;;;6.80;;
63087;SDS011;49173;43.164;27.786;2023-08-20T05:27:08;11.70;;;6.40;;
63087;SDS011;49173;43.164;27.786;2023-08-20T05:29:36;10.77;;;7.00;;
63087;SDS011;49173;43.164;27.786;2023-08-20T05:32:03;9.82;;;7.60;;
63087;SDS011;49173;43.164;27.786;2023-08-20T05:34:29;10.02;;;6.30;;
63087;SDS011;49173;43.164;27.786;2023-08-20T05:36:56;12.52;;;5.82;;
63087;SDS011;49173;43.164;27.786;2023-08-20T05:39:22;8.75;;;5.65;;
63087;SDS011;49173;43.164;27.786;2023-08-20T05:41:49;6.90;;;5.70;;
63087;SDS011;49173;43.164;27.786;2023-08-20T05:44:15;10.63;;;6.20;;
63087;SDS011;49173;43.164;27.786;2023-08-20T05:46:40;10.85;;;6.78;;
63087;SDS011;49173;43.164;27.786;2023-08-20T05:49:06;8.95;;;6.35;;
63087;SDS011;49173;43.164;27.786;2023-08-20T05:51:32;11.48;;;5.88;;
63087;SDS011;49173;43.164;27.786;2023-08-20T05:53:57;14.48;;;6.45;;
63087;SDS011;49173;43.164;27.786;2023-08-20T05:56:23;11.38;;;5.90;;
63087;SDS011;49173;43.164;27.786;2023-08-20T05:58:49;8.00;;;5.47;;
63087;SDS011;49173;43.164;27.786;2023-08-20T06:01:15;9.68;;;6.28;;
63087;SDS011;49173;43.164;27.786;2023-08-20T06:03:41;10.15;;;6.63;;
63087;SDS011;49173;43.164;27.786;2023-08-20T06:06:06;10.30;;;7.22;;
63087;SDS011;49173;43.164;27.786;2023-08-20T06:08:33;11.15;;;7.38;;
63087;SDS011;49173;43.164;27.786;2023-08-20T06:10:59;11.63;;;6.18;;
63087;SDS011;49173;43.164;27.786;2023-08-20T06:13:25;13.68;;;6.00;;
63087;SDS011;49173;43.164;27.786;2023-08-20T06:15:50;10.50;;;5.95;;
63087;SDS011;49173;43.164;27.786;2023-08-20T06:18:16;7.75;;;5.80;;
63087;SDS011;49173;43.164;27.786;2023-08-20T06:20:42;11.75;;;6.63;;
63087;SDS011;49173;43.164;27.786;2023-08-20T06:23:07;7.70;;;5.80;;
63087;SDS011;49173;43.164;27.786;2023-08-20T06:25:34;9.80;;;5.38;;
63087;SDS011;49173;43.164;27.786;2023-08-20T06:28:00;7.93;;;5.90;;
63087;SDS011;49173;43.164;27.786;2023-08-20T06:30:26;7.35;;;5.75;;
63087;SDS011;49173;43.164;27.786;2023-08-20T06:32:53;8.75;;;5.35;;
63087;SDS011;49173;43.164;27.786;2023-08-20T06:35:20;9.65;;;5.65;;
63087;SDS011;49173;43.164;27.786;2023-08-20T06:37:46;8.27;;;5.80;;
63087;SDS011;49173;43.164;27.786;2023-08-20T06:40:12;11.80;;;5.78;;
63087;SDS011;49173;43.164;27.786;2023-08-20T06:42:39;23.67;;;6.05;;
63087;SDS011;49173;43.164;27.786;2023-08-20T06:45:05;6.18;;;5.32;;
63087;SDS011;49173;43.164;27.786;2023-08-20T06:47:33;11.55;;;5.88;;
63087;SDS011;49173;43.164;27.786;2023-08-20T06:49:58;9.50;;;5.85;;
63087;SDS011;49173;43.164;27.786;2023-08-20T06:52:24;8.75;;;5.47;;
63087;SDS011;49173;43.164;27.786;2023-08-20T06:54:50;10.15;;;5.65;;
63087;SDS011;49173;43.164;27.786;2023-08-20T06:57:15;11.18;;;6.00;;
63087;SDS011;49173;43.164;27.786;2023-08-20T06:59:41;7.30;;;5.15;;
63087;SDS011;49173;43.164;27.786;2023-08-20T07:02:09;7.28;;;4.70;;
63087;SDS011;49173;43.164;27.786;2023-08-20T07:04:35;9.15;;;4.90;;
63087;SDS011;49173;43.164;27.786;2023-08-20T07:07:01;12.52;;;5.00;;
63087;SDS011;49173;43.164;27.786;2023-08-20T07:09:30;8.10;;;4.70;;
63087;SDS011;49173;43.164;27.786;2023-08-20T07:11:56;8.98;;;5.07;;
63087;SDS011;49173;43.164;27.786;2023-08-20T07:14:22;8.50;;;4.65;;
63087;SDS011;49173;43.164;27.786;2023-08-20T07:16:47;6.43;;;4.30;;
63087;SDS011;49173;43.164;27.786;2023-08-20T07:19:13;8.30;;;4.65;;
63087;SDS011;49173;43.164;27.786;2023-08-20T07:21:39;7.90;;;4.22;;
63087;SDS011;49173;43.164;27.786;2023-08-20T07:24:05;10.25;;;4.78;;
63087;SDS011;49173;43.164;27.786;2023-08-20T07:26:31;7.85;;;4.72;;
63087;SDS011;49173;43.164;27.786;2023-08-20T07:28:57;8.38;;;4.57;;
63087;SDS011;49173;43.164;27.786;2023-08-20T07:33:50;7.65;;;4.47;;
63087;SDS011;49173;43.164;27.786;2023-08-20T07:36:17;7.72;;;4.00;;
63087;SDS011;49173;43.164;27.786;2023-08-20T07:38:43;10.02;;;4.50;;
63087;SDS011;49173;43.164;27.786;2023-08-20T07:41:09;6.93;;;4.00;;
63087;SDS011;49173;43.164;27.786;2023-08-20T07:43:39;7.63;;;4.20;;
63087;SDS011;49173;43.164;27.786;2023-08-20T07:46:07;7.00;;;4.10;;
63087;SDS011;49173;43.164;27.786;2023-08-20T07:48:33;8.18;;;4.47;;
63087;SDS011;49173;43.164;27.786;2023-08-20T07:51:00;10.70;;;4.25;;
63087;SDS011;49173;43.164;27.786;2023-08-20T07:53:26;7.88;;;3.83;;
63087;SDS011;49173;43.164;27.786;2023-08-20T07:55:52;7.25;;;3.90;;
63087;SDS011;49173;43.164;27.786;2023-08-20T07:58:18;8.98;;;4.53;;
63087;SDS011;49173;43.164;27.786;2023-08-20T08:00:44;11.00;;;4.70;;
63087;SDS011;49173;43.164;27.786;2023-08-20T08:03:09;12.38;;;4.57;;
63087;SDS011;49173;43.164;27.786;2023-08-20T08:05:36;11.15;;;4.93;;
63087;SDS011;49173;43.164;27.786;2023-08-20T08:08:02;8.10;;;4.13;;
63087;SDS011;49173;43.164;27.786;2023-08-20T08:10:28;8.45;;;4.13;;
63087;SDS011;49173;43.164;27.786;2023-08-20T08:12:54;13.05;;;4.20;;
63087;SDS011;49173;43.164;27.786;2023-08-20T08:15:20;7.47;;;4.40;;
63087;SDS011;49173;43.164;27.786;2023-08-20T08:17:46;7.05;;;4.82;;
63087;SDS011;49173;43.164;27.786;2023-08-20T08:20:11;10.20;;;4.40;;
63087;SDS011;49173;43.164;27.786;2023-08-20T08:22:38;9.73;;;4.40;;
63087;SDS011;49173;43.164;27.786;2023-08-20T08:25:05;7.13;;;4.30;;
63087;SDS011;49173;43.164;27.786;2023-08-20T08:27:30;5.90;;;3.97;;
63087;SDS011;49173;43.164;27.786;2023-08-20T08:29:57;12.38;;;4.40;;
63087;SDS011;49173;43.164;27.786;2023-08-20T08:32:23;6.65;;;4.00;;
63087;SDS011;49173;43.164;27.786;2023-08-20T08:34:49;8.30;;;4.82;;
63087;SDS011;49173;43.164;27.786;2023-08-20T08:37:15;9.32;;;4.72;;
63087;SDS011;49173;43.164;27.786;2023-08-20T08:39:41;9.60;;;4.82;;
63087;SDS011;49173;43.164;27.786;2023-08-20T08:42:07;13.27;;;4.90;;
63087;SDS011;49173;43.164;27.786;2023-08-20T08:44:36;10.63;;;5.38;;
63087;SDS011;49173;43.164;27.786;2023-08-20T08:47:02;13.35;;;5.30;;
63087;SDS011;49173;43.164;27.786;2023-08-20T08:49:32;11.52;;;5.10;;
63087;SDS011;49173;43.164;27.786;2023-08-20T08:51:59;10.43;;;4.70;;
63087;SDS011;49173;43.164;27.786;2023-08-20T08:54:26;6.63;;;4.90;;
63087;SDS011;49173;43.164;27.786;2023-08-20T08:56:52;9.73;;;4.60;;
63087;SDS011;49173;43.164;27.786;2023-08-20T08:59:21;9.52;;;4.35;;
63087;SDS011;49173;43.164;27.786;2023-08-20T09:04:13;6.75;;;4.80;;
63087;SDS011;49173;43.164;27.786;2023-08-20T09:06:45;9.55;;;4.40;;
63087;SDS011;49173;43.164;27.786;2023-08-20T09:09:18;9.25;;;4.72;;
63087;SDS011;49173;43.164;27.786;2023-08-20T09:11:45;9.52;;;5.13;;
63087;SDS011;49173;43.164;27.786;2023-08-20T09:14:21;6.88;;;4.72;;
63087;SDS011;49173;43.164;27.786;2023-08-20T09:16:58;9.18;;;5.00;;
63087;SDS011;49173;43.164;27.786;2023-08-20T09:19:29;7.07;;;4.35;;
63087;SDS011;49173;43.164;27.786;2023-08-20T09:22:07;11.85;;;5.00;;
63087;SDS011;49173;43.164;27.786;2023-08-20T09:24:38;12.50;;;4.70;;
63087;SDS011;49173;43.164;27.786;2023-08-20T09:27:07;15.55;;;4.50;;
63087;SDS011;49173;43.164;27.786;2023-08-20T09:29:55;7.85;;;4.78;;
63087;SDS011;49173;43.164;27.786;2023-08-20T09:32:21;9.88;;;4.75;;
63087;SDS011;49173;43.164;27.786;2023-08-20T09:34:49;6.53;;;4.25;;
63087;SDS011;49173;43.164;27.786;2023-08-20T09:37:17;8.07;;;4.40;;
63087;SDS011;49173;43.164;27.786;2023-08-20T09:39:45;9.90;;;4.18;;
63087;SDS011;49173;43.164;27.786;2023-08-20T09:42:12;6.50;;;4.60;;
63087;SDS011;49173;43.164;27.786;2023-08-20T09:44:39;7.68;;;4.30;;
63087;SDS011;49173;43.164;27.786;2023-08-20T09:47:10;11.35;;;4.80;;
63087;SDS011;49173;43.164;27.786;2023-08-20T09:52:08;8.85;;;4.18;;
63087;SDS011;49173;43.164;27.786;2023-08-20T09:57:23;8.40;;;4.47;;
63087;SDS011;49173;43.164;27.786;2023-08-20T09:59:50;6.35;;;4.45;;
63087;SDS011;49173;43.164;27.786;2023-08-20T10:02:17;5.43;;;3.80;;
63087;SDS011;49173;43.164;27.786;2023-08-20T10:04:44;7.85;;;3.90;;
63087;SDS011;49173;43.164;27.786;2023-08-20T10:07:11;5.93;;;3.88;;
63087;SDS011;49173;43.164;27.786;2023-08-20T10:09:40;8.40;;;3.67;;
63087;SDS011;49173;43.164;27.786;2023-08-20T10:12:14;8.55;;;3.50;;
63087;SDS011;49173;43.164;27.786;2023-08-20T10:14:40;10.55;;;2.85;;
63087;SDS011;49173;43.164;27.786;2023-08-20T10:17:11;10.85;;;3.80;;
63087;SDS011;49173;43.164;27.786;2023-08-20T10:19:37;7.90;;;3.45;;
63087;SDS011;49173;43.164;27.786;2023-08-20T10:22:04;7.63;;;3.25;;
63087;SDS011;49173;43.164;27.786;2023-08-20T10:24:48;9.70;;;3.10;;
63087;SDS011;49173;43.164;27.786;2023-08-20T10:27:28;9.63;;;4.40;;
63087;SDS011;49173;43.164;27.786;2023-08-20T10:30:00;8.18;;;3.17;;
63087;SDS011;49173;43.164;27.786;2023-08-20T10:32:59;6.82;;;3.10;;
63087;SDS011;49173;43.164;27.786;2023-08-20T10:35:28;7.50;;;3.00;;
63087;SDS011;49173;43.164;27.786;2023-08-20T10:38:12;7.53;;;3.00;;
63087;SDS011;49173;43.164;27.786;2023-08-20T10:40:54;7.72;;;2.60;;
63087;SDS011;49173;43.164;27.786;2023-08-20T10:46:13;9.50;;;2.90;;
63087;SDS011;49173;43.164;27.786;2023-08-20T10:48:41;6.65;;;2.67;;
63087;SDS011;49173;43.164;27.786;2023-08-20T10:51:12;9.00;;;2.58;;
63087;SDS011;49173;43.164;27.786;2023-08-20T10:53:40;10.80;;;2.95;;
63087;SDS011;49173;43.164;27.786;2023-08-20T10:56:11;5.97;;;2.47;;
63087;SDS011;49173;43.164;27.786;2023-08-20T10:58:38;5.65;;;2.30;;
63087;SDS011;49173;43.164;27.786;2023-08-20T11:01:15;4.78;;;2.53;;
63087;SDS011;49173;43.164;27.786;2023-08-20T11:03:44;13.07;;;2.60;;
63087;SDS011;49173;43.164;27.786;2023-08-20T11:06:11;3.65;;;2.22;;
63087;SDS011;49173;43.164;27.786;2023-08-20T11:08:38;5.68;;;2.70;;
63087;SDS011;49173;43.164;27.786;2023-08-20T11:11:07;5.75;;;2.60;;
63087;SDS011;49173;43.164;27.786;2023-08-20T11:13:34;6.07;;;2.15;;
63087;SDS011;49173;43.164;27.786;2023-08-20T11:16:01;6.13;;;2.55;;
63087;SDS011;49173;43.164;27.786;2023-08-20T11:18:28;8.57;;;2.72;;
63087;SDS011;49173;43.164;27.786;2023-08-20T11:20:54;5.53;;;2.20;;
63087;SDS011;49173;43.164;27.786;2023-08-20T11:23:21;6.32;;;2.33;;
63087;SDS011;49173;43.164;27.786;2023-08-20T11:25:47;7.43;;;2.40;;
63087;SDS011;49173;43.164;27.786;2023-08-20T11:28:13;7.15;;;2.35;;
63087;SDS011;49173;43.164;27.786;2023-08-20T11:30:39;4.35;;;2.10;;
63087;SDS011;49173;43.164;27.786;2023-08-20T11:33:05;10.77;;;2.80;;
63087;SDS011;49173;43.164;27.786;2023-08-20T11:35:31;4.88;;;1.98;;
63087;SDS011;49173;43.164;27.786;2023-08-20T11:37:58;3.92;;;2.13;;
63087;SDS011;49173;43.164;27.786;2023-08-20T11:40:24;3.88;;;2.25;;
63087;SDS011;49173;43.164;27.786;2023-08-20T11:42:52;5.50;;;2.60;;
63087;SDS011;49173;43.164;27.786;2023-08-20T11:45:18;5.40;;;2.15;;
63087;SDS011;49173;43.164;27.786;2023-08-20T11:47:44;4.28;;;2.60;;
63087;SDS011;49173;43.164;27.786;2023-08-20T11:50:11;5.18;;;2.20;;
63087;SDS011;49173;43.164;27.786;2023-08-20T11:52:37;5.20;;;1.95;;
63087;SDS011;49173;43.164;27.786;2023-08-20T11:55:08;8.15;;;2.30;;
63087;SDS011;49173;43.164;27.786;2023-08-20T11:57:34;9.13;;;2.63;;
63087;SDS011;49173;43.164;27.786;2023-08-20T12:00:04;6.50;;;2.10;;
63087;SDS011;49173;43.164;27.786;2023-08-20T12:02:41;6.57;;;2.17;;
63087;SDS011;49173;43.164;27.786;2023-08-20T12:05:10;5.65;;;2.10;;
63087;SDS011;49173;43.164;27.786;2023-08-20T12:07:36;6.93;;;2.17;;
63087;SDS011;49173;43.164;27.786;2023-08-20T12:10:20;4.53;;;2.05;;
63087;SDS011;49173;43.164;27.786;2023-08-20T12:12:48;4.82;;;2.30;;
63087;SDS011;49173;43.164;27.786;2023-08-20T12:15:14;7.65;;;2.10;;
63087;SDS011;49173;43.164;27.786;2023-08-20T12:17:40;5.57;;;2.13;;
63087;SDS011;49173;43.164;27.786;2023-08-20T12:20:06;6.57;;;2.53;;
63087;SDS011;49173;43.164;27.786;2023-08-20T12:22:38;4.57;;;2.05;;
63087;SDS011;49173;43.164;27.786;2023-08-20T12:25:05;6.00;;;2.70;;
63087;SDS011;49173;43.164;27.786;2023-08-20T12:27:33;5.10;;;2.40;;
63087;SDS011;49173;43.164;27.786;2023-08-20T12:29:59;4.10;;;2.13;;
63087;SDS011;49173;43.164;27.786;2023-08-20T12:32:25;4.72;;;2.08;;
63087;SDS011;49173;43.164;27.786;2023-08-20T12:34:51;8.98;;;2.30;;
63087;SDS011;49173;43.164;27.786;2023-08-20T12:37:17;6.10;;;2.45;;
63087;SDS011;49173;43.164;27.786;2023-08-20T12:39:42;5.45;;;2.20;;
63087;SDS011;49173;43.164;27.786;2023-08-20T12:42:08;4.88;;;2.33;;
63087;SDS011;49173;43.164;27.786;2023-08-20T12:44:34;7.03;;;2.38;;
63087;SDS011;49173;43.164;27.786;2023-08-20T12:46:59;8.20;;;2.38;;
63087;SDS011;49173;43.164;27.786;2023-08-20T12:49:25;4.38;;;2.20;;
63087;SDS011;49173;43.164;27.786;2023-08-20T12:51:51;3.55;;;2.10;;
63087;SDS011;49173;43.164;27.786;2023-08-20T12:54:18;6.97;;;2.60;;
63087;SDS011;49173;43.164;27.786;2023-08-20T12:56:43;4.35;;;2.42;;
63087;SDS011;49173;43.164;27.786;2023-08-20T12:59:09;8.73;;;2.50;;
63087;SDS011;49173;43.164;27.786;2023-08-20T13:01:35;6.03;;;2.20;;
63087;SDS011;49173;43.164;27.786;2023-08-20T13:04:01;6.95;;;2.22;;
63087;SDS011;49173;43.164;27.786;2023-08-20T13:06:28;3.92;;;2.08;;
63087;SDS011;49173;43.164;27.786;2023-08-20T13:08:54;4.78;;;2.33;;
63087;SDS011;49173;43.164;27.786;2023-08-20T13:11:20;10.80;;;2.40;;
63087;SDS011;49173;43.164;27.786;2023-08-20T13:13:51;20.95;;;8.43;;
63087;SDS011;49173;43.164;27.786;2023-08-20T13:16:18;5.57;;;3.08;;
63087;SDS011;49173;43.164;27.786;2023-08-20T13:18:45;4.72;;;2.17;;
63087;SDS011;49173;43.164;27.786;2023-08-20T13:21:11;5.20;;;2.25;;
63087;SDS011;49173;43.164;27.786;2023-08-20T13:23:48;12.70;;;5.28;;
63087;SDS011;49173;43.164;27.786;2023-08-20T13:26:14;6.38;;;2.33;;
63087;SDS011;49173;43.164;27.786;2023-08-20T13:28:39;6.82;;;2.55;;
63087;SDS011;49173;43.164;27.786;2023-08-20T13:31:05;7.00;;;2.72;;
63087;SDS011;49173;43.164;27.786;2023-08-20T13:33:31;8.60;;;3.05;;
63087;SDS011;49173;43.164;27.786;2023-08-20T13:35:57;7.40;;;2.60;;
63087;SDS011;49173;43.164;27.786;2023-08-20T13:38:23;3.70;;;2.15;;
63087;SDS011;49173;43.164;27.786;2023-08-20T13:40:50;5.25;;;2.28;;
63087;SDS011;49173;43.164;27.786;2023-08-20T13:43:16;7.70;;;2.40;;
63087;SDS011;49173;43.164;27.786;2023-08-20T13:45:41;6.97;;;2.10;;
63087;SDS011;49173;43.164;27.786;2023-08-20T13:48:07;8.38;;;2.17;;
63087;SDS011;49173;43.164;27.786;2023-08-20T13:50:34;7.25;;;2.00;;
63087;SDS011;49173;43.164;27.786;2023-08-20T13:53:01;4.57;;;2.38;;
63087;SDS011;49173;43.164;27.786;2023-08-20T13:55:28;7.75;;;2.40;;
63087;SDS011;49173;43.164;27.786;2023-08-20T13:57:56;6.13;;;2.42;;
63087;SDS011;49173;43.164;27.786;2023-08-20T14:00:22;7.80;;;2.40;;
63087;SDS011;49173;43.164;27.786;2023-08-20T14:02:48;6.93;;;2.22;;
63087;SDS011;49173;43.164;27.786;2023-08-20T14:05:14;4.57;;;2.17;;
63087;SDS011;49173;43.164;27.786;2023-08-20T14:07:41;6.05;;;2.38;;
63087;SDS011;49173;43.164;27.786;2023-08-20T14:10:07;5.70;;;2.20;;
63087;SDS011;49173;43.164;27.786;2023-08-20T14:12:33;6.30;;;2.15;;
63087;SDS011;49173;43.164;27.786;2023-08-20T14:14:59;3.80;;;1.95;;
63087;SDS011;49173;43.164;27.786;2023-08-20T14:17:27;6.80;;;2.13;;
63087;SDS011;49173;43.164;27.786;2023-08-20T14:19:53;7.30;;;2.30;;
63087;SDS011;49173;43.164;27.786;2023-08-20T14:22:19;5.03;;;2.33;;
63087;SDS011;49173;43.164;27.786;2023-08-20T14:24:45;4.53;;;2.30;;
63087;SDS011;49173;43.164;27.786;2023-08-20T14:27:11;6.55;;;2.10;;
63087;SDS011;49173;43.164;27.786;2023-08-20T14:29:37;9.23;;;2.15;;
63087;SDS011;49173;43.164;27.786;2023-08-20T14:32:03;4.25;;;2.20;;
63087;SDS011;49173;43.164;27.786;2023-08-20T14:34:29;5.43;;;2.13;;
63087;SDS011;49173;43.164;27.786;2023-08-20T14:36:55;5.82;;;2.30;;
63087;SDS011;49173;43.164;27.786;2023-08-20T14:39:21;10.85;;;2.22;;
63087;SDS011;49173;43.164;27.786;2023-08-20T14:41:46;7.63;;;1.85;;
63087;SDS011;49173;43.164;27.786;2023-08-20T14:44:12;7.50;;;2.10;;
63087;SDS011;49173;43.164;27.786;2023-08-20T14:46:38;8.98;;;2.47;;
63087;SDS011;49173;43.164;27.786;2023-08-20T14:49:03;7.05;;;1.95;;
63087;SDS011;49173;43.164;27.786;2023-08-20T14:51:29;4.30;;;1.90;;